createdAt,value
2019-03-25T00:00:37.795Z,29.04
2019-03-25T00:03:04.134Z,28.95
2019-03-25T00:05:30.530Z,29.01
2019-03-25T00:07:56.860Z,29.04
2019-03-25T00:10:23.196Z,29.00
2019-03-25T00:12:49.521Z,29.00
2019-03-25T00:15:15.892Z,29.03
2019-03-25T00:17:42.229Z,29.15
2019-03-25T00:20:08.595Z,29.03
2019-03-25T00:22:34.923Z,29.09
2019-03-25T00:25:01.302Z,29.06
2019-03-25T00:27:27.663Z,28.97
2019-03-25T00:29:53.996Z,29.16
2019-03-25T00:32:20.347Z,29.14
2019-03-25T00:34:46.730Z,28.99
2019-03-25T00:37:13.060Z,29.13
2019-03-25T00:39:39.434Z,29.16
2019-03-25T00:42:05.773Z,29.16
2019-03-25T00:44:32.105Z,29.15
2019-03-25T00:46:58.588Z,29.16
2019-03-25T00:49:24.952Z,29.10
2019-03-25T00:51:51.301Z,29.35
2019-03-25T00:54:17.657Z,29.36
2019-03-25T00:56:44.113Z,29.30
2019-03-25T00:59:10.500Z,29.33
2019-03-25T01:01:36.855Z,29.46
2019-03-25T01:04:03.188Z,29.32
2019-03-25T01:06:29.539Z,28.92
2019-03-25T01:08:55.909Z,28.76
2019-03-25T01:11:22.404Z,28.78
2019-03-25T01:13:48.735Z,28.83
2019-03-25T01:16:15.076Z,28.85
2019-03-25T01:18:41.426Z,28.79
2019-03-25T01:21:07.783Z,28.77
2019-03-25T01:23:34.161Z,28.67
2019-03-25T01:26:00.492Z,28.70
2019-03-25T01:28:26.905Z,28.51
2019-03-25T01:30:53.233Z,28.61
2019-03-25T01:33:19.611Z,28.51
2019-03-25T01:35:45.978Z,28.54
2019-03-25T01:38:12.275Z,28.62
2019-03-25T01:40:38.603Z,28.37
2019-03-25T01:43:04.990Z,28.48
2019-03-25T01:45:31.438Z,28.22
2019-03-25T01:47:57.880Z,28.24
2019-03-25T01:50:24.224Z,28.23
2019-03-25T01:52:50.633Z,28.30
2019-03-25T01:55:16.950Z,28.14
2019-03-25T01:57:43.295Z,28.47
2019-03-25T02:00:09.623Z,28.30
2019-03-25T02:02:35.950Z,28.13
2019-03-25T02:05:02.289Z,28.21
2019-03-25T02:07:28.657Z,28.17
2019-03-25T02:09:55.011Z,28.28
2019-03-25T02:12:21.373Z,28.29
2019-03-25T02:14:47.702Z,28.07
2019-03-25T02:17:14.030Z,28.22
2019-03-25T02:19:40.355Z,28.08
2019-03-25T02:22:06.799Z,28.15
2019-03-25T02:24:33.180Z,28.09
2019-03-25T02:26:59.484Z,28.18
2019-03-25T02:29:25.930Z,28.18
2019-03-25T02:31:52.246Z,28.03
2019-03-25T02:34:18.612Z,28.07
2019-03-25T02:36:44.935Z,27.95
2019-03-25T02:39:11.347Z,27.96
2019-03-25T02:41:37.695Z,27.84
2019-03-25T02:44:04.033Z,27.93
2019-03-25T02:46:30.446Z,27.98
2019-03-25T02:48:56.771Z,28.09
2019-03-25T02:51:23.095Z,27.81
2019-03-25T02:53:49.426Z,27.97
2019-03-25T02:56:15.806Z,27.89
2019-03-25T02:58:42.137Z,27.82
2019-03-25T03:01:08.547Z,27.86
2019-03-25T03:03:34.857Z,27.76
2019-03-25T03:06:01.208Z,27.87
2019-03-25T03:08:27.534Z,28.04
2019-03-25T03:10:53.878Z,27.92
2019-03-25T03:13:20.282Z,27.91
2019-03-25T03:15:46.546Z,27.85
2019-03-25T03:18:12.917Z,28.04
2019-03-25T03:20:39.238Z,27.78
2019-03-25T03:23:05.608Z,28.09
2019-03-25T03:25:31.934Z,27.95
2019-03-25T03:27:58.306Z,27.89
2019-03-25T03:30:24.721Z,27.85
2019-03-25T03:32:50.989Z,27.81
2019-03-25T03:35:17.348Z,27.77
2019-03-25T03:37:43.733Z,27.92
2019-03-25T03:40:10.130Z,27.98
2019-03-25T03:42:36.415Z,27.84
2019-03-25T03:45:02.751Z,28.29
2019-03-25T03:47:29.133Z,27.88
2019-03-25T03:49:55.453Z,27.84
2019-03-25T03:52:21.851Z,27.88
2019-03-25T03:54:48.183Z,28.09
2019-03-25T03:57:14.525Z,28.09
2019-03-25T03:59:40.911Z,27.94
2019-03-25T04:02:07.280Z,27.80
2019-03-25T04:04:33.603Z,27.77
2019-03-25T04:06:59.936Z,27.60
2019-03-25T04:09:26.266Z,27.83
2019-03-25T04:11:52.629Z,27.54
2019-03-25T04:14:18.968Z,27.66
2019-03-25T04:16:45.341Z,27.59
2019-03-25T04:19:11.640Z,27.68
2019-03-25T04:21:37.997Z,27.64
2019-03-25T04:24:04.388Z,27.72
2019-03-25T04:26:30.716Z,27.68
2019-03-25T04:28:57.085Z,27.52
2019-03-25T04:31:23.422Z,27.65
2019-03-25T04:33:49.789Z,27.70
2019-03-25T04:36:16.177Z,27.68
2019-03-25T04:38:44.992Z,27.52
2019-03-25T04:41:11.318Z,27.67
2019-03-25T04:43:37.654Z,27.58
2019-03-25T04:46:03.989Z,27.50
2019-03-25T04:48:30.419Z,27.59
2019-03-25T04:50:56.758Z,27.60
2019-03-25T04:53:23.145Z,27.40
2019-03-25T04:55:49.456Z,27.49
2019-03-25T04:58:15.791Z,27.76
2019-03-25T05:00:42.123Z,27.78
2019-03-25T05:03:08.454Z,27.53
2019-03-25T05:05:36.150Z,27.44
2019-03-25T05:08:01.119Z,27.58
2019-03-25T05:10:27.456Z,27.55
2019-03-25T05:12:53.830Z,27.15
2019-03-25T05:15:20.149Z,26.98
2019-03-25T05:17:46.527Z,26.96
2019-03-25T05:20:12.873Z,26.95
2019-03-25T05:22:39.266Z,27.15
2019-03-25T05:25:05.605Z,27.25
2019-03-25T05:27:31.951Z,26.94
2019-03-25T05:29:58.322Z,27.02
2019-03-25T05:32:24.647Z,27.26
2019-03-25T05:34:51.003Z,27.00
2019-03-25T05:37:17.327Z,26.27
2019-03-25T05:39:43.732Z,26.72
2019-03-25T05:42:10.018Z,26.75
2019-03-25T05:44:36.410Z,26.58
2019-03-25T05:47:02.738Z,26.65
2019-03-25T05:49:29.123Z,26.64
2019-03-25T05:51:55.453Z,26.48
2019-03-25T05:54:21.835Z,26.06
2019-03-25T05:56:48.163Z,26.19
2019-03-25T05:59:14.570Z,25.78
2019-03-25T06:01:40.901Z,25.78
2019-03-25T06:04:07.252Z,26.47
2019-03-25T06:06:33.622Z,26.02
2019-03-25T06:08:59.995Z,26.08
2019-03-25T06:11:26.360Z,26.10
2019-03-25T06:13:52.700Z,25.90
2019-03-25T06:16:19.031Z,26.63
2019-03-25T06:18:45.376Z,26.32
2019-03-25T06:21:11.751Z,26.66
2019-03-25T06:23:40.581Z,26.74
2019-03-25T06:26:06.929Z,26.99
2019-03-25T06:28:33.319Z,26.19
2019-03-25T06:30:59.666Z,26.25
2019-03-25T06:33:25.997Z,26.25
2019-03-25T06:35:52.386Z,26.54
2019-03-25T06:38:18.860Z,26.68
2019-03-25T06:40:45.221Z,26.45
2019-03-25T06:43:11.557Z,26.66
2019-03-25T06:45:37.900Z,26.43
2019-03-25T06:48:04.288Z,26.50
2019-03-25T06:50:30.593Z,25.96
2019-03-25T06:52:57.005Z,26.45
2019-03-25T06:55:23.345Z,26.10
2019-03-25T06:57:49.706Z,26.23
2019-03-25T07:00:16.060Z,26.27
2019-03-25T07:02:42.390Z,26.14
2019-03-25T07:05:08.776Z,26.19
2019-03-25T07:07:35.269Z,26.23
2019-03-25T07:10:01.604Z,25.92
2019-03-25T07:12:27.961Z,26.45
2019-03-25T07:14:55.735Z,26.29
2019-03-25T07:17:20.744Z,26.22
2019-03-25T07:19:47.068Z,26.39
2019-03-25T07:22:13.399Z,27.06
2019-03-25T07:24:39.748Z,26.08
2019-03-25T07:27:06.160Z,26.17
2019-03-25T07:29:32.489Z,26.30
2019-03-25T07:31:58.852Z,26.50
2019-03-25T07:34:25.253Z,26.60
2019-03-25T07:36:51.605Z,26.17
2019-03-25T07:39:18.014Z,26.06
2019-03-25T07:41:44.375Z,26.17
2019-03-25T07:44:10.831Z,26.81
2019-03-25T07:46:37.149Z,26.60
2019-03-25T07:49:03.491Z,26.43
2019-03-25T07:51:29.867Z,26.26
2019-03-25T07:53:56.211Z,25.98
2019-03-25T07:56:22.535Z,26.09
2019-03-25T07:58:48.958Z,25.96
2019-03-25T08:01:15.248Z,25.89
2019-03-25T08:03:41.625Z,25.82
2019-03-25T08:06:08.008Z,26.39
2019-03-25T08:08:34.417Z,26.25
2019-03-25T08:11:00.803Z,25.97
2019-03-25T08:13:27.284Z,26.26
2019-03-25T08:15:53.574Z,26.18
2019-03-25T08:18:20.055Z,25.96
2019-03-25T08:20:46.470Z,26.25
2019-03-25T08:23:12.809Z,26.41
2019-03-25T08:25:39.158Z,25.93
2019-03-25T08:28:05.511Z,26.31
2019-03-25T08:30:31.856Z,26.32
2019-03-25T08:32:58.196Z,26.25
2019-03-25T08:35:24.540Z,26.24
2019-03-25T08:37:50.880Z,26.03
2019-03-25T08:40:17.235Z,25.95
2019-03-25T08:42:43.656Z,26.03
2019-03-25T08:45:10.075Z,26.03
2019-03-25T08:47:36.416Z,25.89
2019-03-25T08:50:02.778Z,25.92
2019-03-25T08:52:29.182Z,25.95
2019-03-25T08:54:55.622Z,26.02
2019-03-25T08:57:21.955Z,25.88
2019-03-25T08:59:48.300Z,26.02
2019-03-25T09:02:15.056Z,26.09
2019-03-25T09:04:41.391Z,26.04
2019-03-25T09:07:09.020Z,25.95
2019-03-25T09:09:35.435Z,25.81
2019-03-25T09:12:01.816Z,26.04
2019-03-25T09:14:28.176Z,25.93
2019-03-25T09:16:54.551Z,26.11
2019-03-25T09:19:22.206Z,26.13
2019-03-25T09:21:49.900Z,26.18
2019-03-25T09:24:17.736Z,26.36
2019-03-25T09:26:44.099Z,26.20
2019-03-25T09:29:10.441Z,26.15
2019-03-25T09:31:37.256Z,26.10
2019-03-25T09:34:03.185Z,26.10
2019-03-25T09:36:29.580Z,26.20
2019-03-25T09:38:55.915Z,26.17
2019-03-25T09:41:22.300Z,26.26
2019-03-25T09:43:48.641Z,26.25
2019-03-25T09:46:14.981Z,26.39
2019-03-25T09:48:41.358Z,26.54
2019-03-25T09:51:07.766Z,26.47
2019-03-25T09:53:34.130Z,26.49
2019-03-25T09:56:00.477Z,26.56
2019-03-25T09:58:35.639Z,26.56
2019-03-25T10:00:53.248Z,26.60
2019-03-25T10:03:19.621Z,26.51
2019-03-25T10:05:46.032Z,26.47
2019-03-25T10:08:12.363Z,26.45
2019-03-25T10:10:38.737Z,26.40
2019-03-25T10:13:05.068Z,26.41
2019-03-25T10:15:31.421Z,26.50
2019-03-25T10:17:57.942Z,26.49
2019-03-25T10:20:24.237Z,26.45
2019-03-25T10:22:50.586Z,26.43
2019-03-25T10:25:17.025Z,26.85
2019-03-25T10:27:43.368Z,26.46
2019-03-25T10:30:09.711Z,26.84
2019-03-25T10:32:36.059Z,26.75
2019-03-25T10:35:02.396Z,26.75
2019-03-25T10:37:28.726Z,26.53
2019-03-25T10:39:55.056Z,26.73
2019-03-25T10:42:21.439Z,26.64
2019-03-25T10:44:47.782Z,26.56
2019-03-25T10:47:14.123Z,26.47
2019-03-25T10:49:40.458Z,26.50
2019-03-25T10:52:07.350Z,26.49
2019-03-25T10:54:33.717Z,26.48
2019-03-25T10:57:00.035Z,26.69
2019-03-25T10:59:26.372Z,26.44
2019-03-25T11:01:52.762Z,26.91
2019-03-25T11:04:19.204Z,26.66
2019-03-25T11:06:45.561Z,26.67
2019-03-25T11:09:11.900Z,26.64
2019-03-25T11:11:38.245Z,26.55
2019-03-25T11:14:04.611Z,26.61
2019-03-25T11:16:30.935Z,26.66
2019-03-25T11:18:57.292Z,26.69
2019-03-25T11:21:23.617Z,26.58
2019-03-25T11:23:49.953Z,26.47
2019-03-25T11:26:16.323Z,26.68
2019-03-25T11:28:42.669Z,26.73
2019-03-25T11:31:09.023Z,26.66
2019-03-25T11:33:35.395Z,26.64
2019-03-25T11:36:02.918Z,26.43
2019-03-25T11:38:28.371Z,26.54
2019-03-25T11:40:54.727Z,26.09
2019-03-25T11:43:21.059Z,26.58
2019-03-25T11:45:47.458Z,26.71
2019-03-25T11:48:13.766Z,26.06
2019-03-25T11:50:40.127Z,26.06
2019-03-25T11:53:06.469Z,26.20
2019-03-25T11:55:32.810Z,25.99
2019-03-25T11:57:59.175Z,26.49
2019-03-25T12:00:25.669Z,26.55
2019-03-25T12:02:52.059Z,26.62
2019-03-25T12:05:18.409Z,26.58
2019-03-25T12:07:44.821Z,26.54
2019-03-25T12:10:11.128Z,26.65
2019-03-25T12:12:38.608Z,26.47
2019-03-25T12:15:04.980Z,26.49
2019-03-25T12:17:31.413Z,26.55
2019-03-25T12:19:57.817Z,26.41
2019-03-25T12:22:24.285Z,26.53
2019-03-25T12:24:50.647Z,26.61
2019-03-25T12:27:17.107Z,26.80
2019-03-25T12:29:43.375Z,26.52
2019-03-25T12:32:09.737Z,26.55
2019-03-25T12:34:36.220Z,26.39
2019-03-25T12:37:02.740Z,26.49
2019-03-25T12:39:29.106Z,26.53
2019-03-25T12:41:55.529Z,26.43
2019-03-25T12:44:21.871Z,26.55
2019-03-25T12:46:48.307Z,26.45
2019-03-25T12:49:14.674Z,26.49
2019-03-25T12:51:41.017Z,26.57
2019-03-25T12:54:07.359Z,26.52
2019-03-25T12:56:33.707Z,26.52
2019-03-25T12:59:00.053Z,26.48
2019-03-25T13:01:26.418Z,26.50
2019-03-25T13:03:52.773Z,26.52
2019-03-25T13:06:21.720Z,26.57
2019-03-25T13:08:48.098Z,26.54
2019-03-25T13:11:14.422Z,26.45
2019-03-25T13:13:40.755Z,26.46
2019-03-25T13:16:07.097Z,26.59
2019-03-25T13:18:33.527Z,26.54
2019-03-25T13:20:59.921Z,26.51
2019-03-25T13:23:26.285Z,26.40
2019-03-25T13:25:52.629Z,26.43
2019-03-25T13:28:18.966Z,26.37
2019-03-25T13:30:46.406Z,26.34
2019-03-25T13:33:12.751Z,26.24
2019-03-25T13:35:39.165Z,26.39
2019-03-25T13:38:05.589Z,26.39
2019-03-25T13:40:31.909Z,26.35
2019-03-25T13:42:58.274Z,26.35
2019-03-25T13:45:24.642Z,26.30
2019-03-25T13:47:51.037Z,26.25
2019-03-25T13:50:17.421Z,26.25
2019-03-25T13:52:43.743Z,26.18
2019-03-25T13:55:10.131Z,26.19
2019-03-25T13:57:36.518Z,26.18
2019-03-25T14:00:03.792Z,26.18
2019-03-25T14:02:29.293Z,26.17
2019-03-25T14:04:55.713Z,26.05
2019-03-25T14:07:22.092Z,26.04
2019-03-25T14:09:48.489Z,26.09
2019-03-25T14:12:14.872Z,25.95
2019-03-25T14:14:41.221Z,25.99
2019-03-25T14:17:07.782Z,26.01
2019-03-25T14:19:35.491Z,26.05
2019-03-25T14:22:01.824Z,25.95
2019-03-25T14:24:28.166Z,25.90
2019-03-25T14:26:54.549Z,25.98
2019-03-25T14:29:20.929Z,25.91
2019-03-25T14:31:47.329Z,26.14
2019-03-25T14:34:14.629Z,26.04
2019-03-25T14:36:40.117Z,25.88
2019-03-25T14:39:06.648Z,25.86
2019-03-25T14:41:32.998Z,25.89
2019-03-25T14:43:59.401Z,25.92
2019-03-25T14:46:26.828Z,26.04
2019-03-25T14:48:53.255Z,25.93
2019-03-25T14:51:19.587Z,25.94
2019-03-25T14:53:46.022Z,25.78
2019-03-25T14:56:12.426Z,25.82
2019-03-25T14:58:38.954Z,25.44
2019-03-25T15:01:05.355Z,25.80
2019-03-25T15:03:31.749Z,25.88
2019-03-25T15:05:58.093Z,25.70
2019-03-25T15:08:24.512Z,25.44
2019-03-25T15:10:53.782Z,25.72
2019-03-25T15:13:17.232Z,25.59
2019-03-25T15:15:43.667Z,25.65
2019-03-25T15:18:15.454Z,25.88
2019-03-25T15:20:36.515Z,25.79
2019-03-25T15:23:03.045Z,25.94
2019-03-25T15:25:30.330Z,25.81
2019-03-25T15:27:56.809Z,25.59
2019-03-25T15:30:23.123Z,25.76
2019-03-25T15:32:49.558Z,26.38
2019-03-25T15:35:15.920Z,25.59
2019-03-25T15:37:42.368Z,26.02
2019-03-25T15:40:08.779Z,25.75
2019-03-25T15:42:35.054Z,25.95
2019-03-25T15:45:01.545Z,26.03
2019-03-25T15:47:28.013Z,25.55
2019-03-25T15:49:54.330Z,25.57
2019-03-25T15:52:20.725Z,25.26
2019-03-25T15:54:47.052Z,25.43
2019-03-25T15:57:13.482Z,25.47
2019-03-25T15:59:39.911Z,25.06
2019-03-25T16:02:06.248Z,24.77
2019-03-25T16:04:32.580Z,24.72
2019-03-25T16:06:59.009Z,25.01
2019-03-25T16:09:25.298Z,24.79
2019-03-25T16:11:51.698Z,24.90
2019-03-25T16:14:18.040Z,24.79
2019-03-25T16:16:44.380Z,24.89
2019-03-25T16:19:10.748Z,24.32
2019-03-25T16:21:37.117Z,24.29
2019-03-25T16:24:03.469Z,24.61
2019-03-25T16:26:29.820Z,24.65
2019-03-25T16:28:56.214Z,24.41
2019-03-25T16:31:22.642Z,24.23
2019-03-25T16:33:48.994Z,24.33
2019-03-25T16:36:15.386Z,24.27
2019-03-25T16:38:41.765Z,24.16
2019-03-25T16:41:08.094Z,24.11
2019-03-25T16:43:34.445Z,24.02
2019-03-25T16:46:00.843Z,24.17
2019-03-25T16:48:27.122Z,23.91
2019-03-25T16:50:53.492Z,23.89
2019-03-25T16:53:19.885Z,23.86
2019-03-25T16:55:46.175Z,23.98
2019-03-25T16:58:12.513Z,23.92
2019-03-25T17:00:38.839Z,23.94
2019-03-25T17:03:05.180Z,24.17
2019-03-25T17:05:31.526Z,23.96
2019-03-25T17:07:57.865Z,23.93
2019-03-25T17:10:24.460Z,23.94
2019-03-25T17:12:50.833Z,23.74
2019-03-25T17:15:17.224Z,23.81
2019-03-25T17:17:43.568Z,23.70
2019-03-25T17:20:09.954Z,23.74
2019-03-25T17:22:36.281Z,23.69
2019-03-25T17:25:02.643Z,23.68
2019-03-25T17:27:28.982Z,23.80
2019-03-25T17:29:55.364Z,23.61
2019-03-25T17:32:21.713Z,23.91
2019-03-25T17:34:48.043Z,23.40
2019-03-25T17:37:14.399Z,23.55
2019-03-25T17:39:40.730Z,23.48
2019-03-25T17:42:07.071Z,23.77
2019-03-25T17:44:33.436Z,23.73
2019-03-25T17:46:59.775Z,23.85
2019-03-25T17:49:26.105Z,23.97
2019-03-25T17:51:52.482Z,23.87
2019-03-25T17:54:18.893Z,23.75
2019-03-25T17:56:45.244Z,23.80
2019-03-25T17:59:11.530Z,23.82
2019-03-25T18:01:37.966Z,23.83
2019-03-25T18:04:04.297Z,23.49
2019-03-25T18:06:30.671Z,23.33
2019-03-25T18:08:57.076Z,23.55
2019-03-25T18:11:23.360Z,24.05
2019-03-25T18:13:49.750Z,24.18
2019-03-25T18:16:16.102Z,24.27
2019-03-25T18:18:42.489Z,24.12
2019-03-25T18:21:08.822Z,24.25
2019-03-25T18:23:35.180Z,24.25
2019-03-25T18:26:01.529Z,24.17
2019-03-25T18:28:27.878Z,24.37
2019-03-25T18:30:54.226Z,24.23
2019-03-25T18:33:20.558Z,24.22
2019-03-25T18:35:46.934Z,24.20
2019-03-25T18:38:13.287Z,24.23
2019-03-25T18:40:39.569Z,24.26
2019-03-25T18:43:05.922Z,24.30
2019-03-25T18:45:32.297Z,24.36
2019-03-25T18:47:58.684Z,24.31
2019-03-25T18:50:25.020Z,24.34
2019-03-25T18:52:51.362Z,24.37
2019-03-25T18:55:17.694Z,24.35
2019-03-25T18:57:44.034Z,24.41
2019-03-25T19:00:10.553Z,24.36
2019-03-25T19:02:36.895Z,24.38
2019-03-25T19:05:03.241Z,24.16
2019-03-25T19:07:29.629Z,24.08
2019-03-25T19:09:55.992Z,24.33
2019-03-25T19:12:22.334Z,24.32
2019-03-25T19:14:48.702Z,24.49
2019-03-25T19:17:15.030Z,24.35
2019-03-25T19:19:41.367Z,24.37
2019-03-25T19:22:07.708Z,24.39
2019-03-25T19:24:34.056Z,24.32
2019-03-25T19:27:00.359Z,24.49
2019-03-25T19:29:26.747Z,24.53
2019-03-25T19:31:53.076Z,24.52
2019-03-25T19:34:19.478Z,24.54
2019-03-25T19:36:45.782Z,24.58
2019-03-25T19:39:12.127Z,24.64
2019-03-25T19:41:38.468Z,24.67
2019-03-25T19:44:04.835Z,24.75
2019-03-25T19:46:31.425Z,24.73
2019-03-25T19:48:57.541Z,24.62
2019-03-25T19:51:23.843Z,24.67
2019-03-25T19:53:50.164Z,24.68
2019-03-25T19:56:16.498Z,24.68
2019-03-25T19:58:42.888Z,24.86
2019-03-25T20:01:09.278Z,24.91
2019-03-25T20:03:35.601Z,24.90
2019-03-25T20:06:01.985Z,24.93
2019-03-25T20:08:28.331Z,25.07
2019-03-25T20:10:55.903Z,25.07
2019-03-25T20:13:21.108Z,25.05
2019-03-25T20:15:47.470Z,25.24
2019-03-25T20:18:13.865Z,25.03
2019-03-25T20:20:40.247Z,25.24
2019-03-25T20:23:06.627Z,25.11
2019-03-25T20:25:33.002Z,25.39
2019-03-25T20:27:59.373Z,25.40
2019-03-25T20:30:25.719Z,25.46
2019-03-25T20:32:52.147Z,25.42
2019-03-25T20:35:18.397Z,25.45
2019-03-25T20:37:44.722Z,25.55
2019-03-25T20:40:11.140Z,25.67
2019-03-25T20:42:37.520Z,25.63
2019-03-25T20:45:03.871Z,25.63
2019-03-25T20:47:30.311Z,25.62
2019-03-25T20:49:56.604Z,25.77
2019-03-25T20:52:24.494Z,25.79
2019-03-25T20:54:49.244Z,25.82
2019-03-25T20:57:15.692Z,25.98
2019-03-25T20:59:42.050Z,25.95
2019-03-25T21:02:08.358Z,26.03
2019-03-25T21:04:34.757Z,26.04
2019-03-25T21:07:01.070Z,25.95
2019-03-25T21:09:27.470Z,26.13
2019-03-25T21:11:53.782Z,26.12
2019-03-25T21:14:20.139Z,26.02
2019-03-25T21:16:46.457Z,26.13
2019-03-25T21:19:12.784Z,26.17
2019-03-25T21:21:39.142Z,26.22
2019-03-25T21:24:05.444Z,26.34
2019-03-25T21:26:31.875Z,26.30
2019-03-25T21:28:58.271Z,26.33
2019-03-25T21:31:24.512Z,26.31
2019-03-25T21:33:50.844Z,26.30
2019-03-25T21:36:17.202Z,26.36
2019-03-25T21:38:43.648Z,26.44
2019-03-25T21:41:09.935Z,26.44
2019-03-25T21:43:36.327Z,26.52
2019-03-25T21:46:02.651Z,26.52
2019-03-25T21:48:29.017Z,26.60
2019-03-25T21:50:55.387Z,26.47
2019-03-25T21:53:21.689Z,26.54
2019-03-25T21:55:48.075Z,26.59
2019-03-25T21:58:14.389Z,26.65
2019-03-25T22:00:40.739Z,26.79
2019-03-25T22:03:12.052Z,26.76
2019-03-25T22:05:33.431Z,26.84
2019-03-25T22:07:59.785Z,26.67
2019-03-25T22:10:26.137Z,26.87
2019-03-25T22:12:52.470Z,26.78
2019-03-25T22:15:18.850Z,26.86
2019-03-25T22:17:45.181Z,27.00
2019-03-25T22:20:11.735Z,27.07
2019-03-25T22:22:38.107Z,27.18
2019-03-25T22:25:04.478Z,27.18
2019-03-25T22:27:30.856Z,27.15
2019-03-25T22:29:57.192Z,27.40
2019-03-25T22:32:23.545Z,27.26
2019-03-25T22:34:52.915Z,27.64
2019-03-25T22:37:19.333Z,27.54
2019-03-25T22:39:45.666Z,27.54
2019-03-25T22:42:12.021Z,27.75
2019-03-25T22:44:38.357Z,27.82
2019-03-25T22:47:04.726Z,27.66
2019-03-25T22:49:31.157Z,27.67
2019-03-25T22:51:57.487Z,27.86
2019-03-25T22:54:23.905Z,27.93
2019-03-25T22:56:50.209Z,27.80
2019-03-25T22:59:16.558Z,27.85
2019-03-25T23:01:42.914Z,27.98
2019-03-25T23:04:09.264Z,27.88
2019-03-25T23:06:35.669Z,27.88
2019-03-25T23:09:02.008Z,28.04
2019-03-25T23:11:28.347Z,28.04
2019-03-25T23:13:54.678Z,28.28
2019-03-25T23:16:21.009Z,28.07
2019-03-25T23:18:47.390Z,28.09
2019-03-25T23:21:13.714Z,28.20
2019-03-25T23:23:40.087Z,28.20
2019-03-25T23:26:06.417Z,28.26
2019-03-25T23:28:32.774Z,28.25
2019-03-25T23:30:59.148Z,28.45
2019-03-25T23:33:25.475Z,28.43
2019-03-25T23:35:51.849Z,28.38
2019-03-25T23:38:18.178Z,28.48
2019-03-25T23:40:44.517Z,28.40
2019-03-25T23:43:10.979Z,28.55
2019-03-25T23:45:37.292Z,28.68
2019-03-25T23:48:03.613Z,28.58
2019-03-25T23:50:29.956Z,28.47
2019-03-25T23:52:56.304Z,28.49
2019-03-25T23:55:22.795Z,28.61
2019-03-25T23:57:49.153Z,28.70
